Time;durP1;ratioP1;P1;durP2;ratioP2;P2;SDS_P1;SDS_P2;PMS_P1;PMS_P2;Temp;Humidity;BMP_temperature;BMP_pressure;BME280_temperature;BME280_humidity;BME280_pressure;Samples;Min_cycle;Max_cycle;Signal;HPM_P1;HPM_P2
2023/06/11 00:00:11;;;;;;;;;;;20.90;69.90;;;;;;5010453;28;91563;-47
2023/06/11 00:02:41;;;;;;;;;;;20.90;69.80;;;;;;5009207;28;93259;-48
2023/06/11 00:05:07;;;;;;;;;;;20.90;69.90;;;;;;5006903;28;93081;-48
2023/06/11 00:07:34;;;;;;;;;;;20.90;69.90;;;;;;5011654;28;93309;-47
2023/06/11 00:10:00;;;;;;;;;;;20.80;69.90;;;;;;5004631;28;93530;-49
2023/06/11 00:12:26;;;;;;;;;;;20.90;69.90;;;;;;5010203;28;93344;-47
2023/06/11 00:14:51;;;;;;;;;;;20.80;69.80;;;;;;5003897;28;92190;-47
2023/06/11 00:17:17;;;;;;;;;;;20.80;69.90;;;;;;5013382;28;92489;-48
2023/06/11 00:19:43;;;;;;;;;;;20.80;69.90;;;;;;5007018;28;92494;-48
2023/06/11 00:22:08;;;;;;;;;;;20.80;70.00;;;;;;5008969;28;94254;-48
2023/06/11 00:24:34;;;;;;;;;;;20.80;70.50;;;;;;5006371;28;92184;-49
2023/06/11 00:27:01;;;;;;;;;;;20.70;69.90;;;;;;5007865;28;92276;-48
2023/06/11 00:29:27;;;;;;;;;;;20.70;70.00;;;;;;5009177;28;92364;-47
2023/06/11 00:31:53;;;;;;;;;;;20.70;70.00;;;;;;5002804;28;93854;-47
2023/06/11 00:34:19;;;;;;;;;;;20.70;70.00;;;;;;5009138;28;93006;-47
2023/06/11 00:36:45;;;;;;;;;;;20.70;70.00;;;;;;5007303;28;92302;-47
2023/06/11 00:39:11;;;;;;;;;;;20.70;70.00;;;;;;5009640;28;92142;-48
2023/06/11 00:41:36;;;;;;;;;;;20.70;70.10;;;;;;5011054;28;92352;-48
2023/06/11 00:44:02;;;;;;;;;;;20.70;70.00;;;;;;5006422;28;93211;-48
2023/06/11 00:46:31;;;;;;;;;;;20.60;70.00;;;;;;5010602;28;92236;-48
2023/06/11 00:48:57;;;;;;;;;;;20.60;70.00;;;;;;5005013;28;92439;-47
2023/06/11 00:51:23;;;;;;;;;;;20.60;70.10;;;;;;5013261;28;93280;-47
2023/06/11 00:53:50;;;;;;;;;;;20.60;69.90;;;;;;5007419;28;92789;-48
2023/06/11 00:56:17;;;;;;;;;;;20.60;70.10;;;;;;5013073;28;93072;-48
2023/06/11 00:58:45;;;;;;;;;;;20.50;70.00;;;;;;5012857;28;94563;-47
2023/06/11 01:01:15;;;;;;;;;;;20.50;70.10;;;;;;4993826;28;94134;-48
2023/06/11 01:03:43;;;;;;;;;;;20.50;70.10;;;;;;5007446;28;93961;-48
2023/06/11 01:06:13;;;;;;;;;;;20.50;70.10;;;;;;5010766;28;92247;-47
2023/06/11 01:08:39;;;;;;;;;;;20.50;70.10;;;;;;5013863;28;93835;-47
2023/06/11 01:11:23;;;;;;;;;;;20.50;70.10;;;;;;5006974;28;93295;-48
2023/06/11 01:13:49;;;;;;;;;;;20.50;70.10;;;;;;5012747;28;93210;-48
2023/06/11 01:16:25;;;;;;;;;;;20.50;70.10;;;;;;5006199;28;93026;-47
2023/06/11 01:19:03;;;;;;;;;;;20.50;70.10;;;;;;5011363;28;92291;-47
2023/06/11 01:21:33;;;;;;;;;;;20.40;70.10;;;;;;5010587;28;93077;-48
2023/06/11 01:23:58;;;;;;;;;;;20.50;70.10;;;;;;5011992;28;93199;-47
2023/06/11 01:26:24;;;;;;;;;;;20.40;70.00;;;;;;5013939;28;92722;-47
2023/06/11 01:28:54;;;;;;;;;;;20.40;70.00;;;;;;5010537;28;92352;-48
2023/06/11 01:31:20;;;;;;;;;;;20.40;70.10;;;;;;5011344;28;93168;-46
2023/06/11 01:33:46;;;;;;;;;;;20.40;70.20;;;;;;5008086;28;92192;-49
2023/06/11 01:36:11;;;;;;;;;;;20.40;70.10;;;;;;5013919;28;92504;-47
2023/06/11 01:38:44;;;;;;;;;;;20.30;70.10;;;;;;5006360;28;91529;-47
2023/06/11 01:41:13;;;;;;;;;;;20.40;70.10;;;;;;5014176;28;92130;-48
2023/06/11 01:43:40;;;;;;;;;;;20.30;70.20;;;;;;5012890;28;92672;-49
2023/06/11 01:46:05;;;;;;;;;;;20.30;70.20;;;;;;5011699;28;93048;-48
2023/06/11 01:48:31;;;;;;;;;;;20.30;70.10;;;;;;5012080;28;93904;-48
2023/06/11 01:50:57;;;;;;;;;;;20.30;70.70;;;;;;5009867;28;92471;-47
2023/06/11 01:53:22;;;;;;;;;;;20.30;70.10;;;;;;5013052;28;92168;-47
2023/06/11 01:55:48;;;;;;;;;;;20.30;70.10;;;;;;5007339;28;92704;-47
2023/06/11 01:58:13;;;;;;;;;;;20.30;70.20;;;;;;5005853;28;94298;-51
2023/06/11 02:00:39;;;;;;;;;;;20.30;70.10;;;;;;5007717;28;92224;-47
2023/06/11 02:03:05;;;;;;;;;;;20.20;70.10;;;;;;5008114;28;92400;-47
2023/06/11 02:05:31;;;;;;;;;;;20.30;70.20;;;;;;5007535;28;93029;-48
2023/06/11 02:07:56;;;;;;;;;;;20.30;70.20;;;;;;5010740;28;92467;-48
2023/06/11 02:10:22;;;;;;;;;;;20.20;70.10;;;;;;5011843;28;93893;-47
2023/06/11 02:12:48;;;;;;;;;;;20.20;70.20;;;;;;5008695;28;92212;-48
2023/06/11 02:15:13;;;;;;;;;;;20.20;70.20;;;;;;5016204;28;92171;-48
2023/06/11 02:17:39;;;;;;;;;;;20.20;70.10;;;;;;5007474;28;92980;-48
2023/06/11 02:20:06;;;;;;;;;;;20.20;70.10;;;;;;5013998;28;92265;-47
2023/06/11 02:22:34;;;;;;;;;;;20.10;70.20;;;;;;5006873;28;92568;-50
2023/06/11 02:25:00;;;;;;;;;;;20.10;70.20;;;;;;5011891;28;94326;-47
2023/06/11 02:27:26;;;;;;;;;;;20.10;70.20;;;;;;5013396;28;91466;-48
2023/06/11 02:29:51;;;;;;;;;;;20.10;70.10;;;;;;5008659;28;93138;-47
2023/06/11 02:32:17;;;;;;;;;;;20.10;70.20;;;;;;5013401;28;92143;-47
2023/06/11 02:34:42;;;;;;;;;;;20.10;70.20;;;;;;5008420;28;94914;-47
2023/06/11 02:37:08;;;;;;;;;;;20.10;70.30;;;;;;5011284;28;94453;-49
2023/06/11 02:39:34;;;;;;;;;;;20.10;70.30;;;;;;5004320;28;92244;-48
2023/06/11 02:41:59;;;;;;;;;;;20.10;70.20;;;;;;5012462;28;92388;-48
2023/06/11 02:44:25;;;;;;;;;;;20.10;70.30;;;;;;5003031;28;93219;-48
2023/06/11 02:46:51;;;;;;;;;;;20.00;70.10;;;;;;5002339;28;92766;-48
2023/06/11 02:49:16;;;;;;;;;;;20.00;70.20;;;;;;5009267;28;93220;-51
2023/06/11 02:51:42;;;;;;;;;;;20.00;70.20;;;;;;5008578;28;91417;-47
2023/06/11 02:54:07;;;;;;;;;;;20.00;70.20;;;;;;5012619;28;92106;-47
2023/06/11 02:56:33;;;;;;;;;;;20.00;70.20;;;;;;5004732;28;93462;-47
2023/06/11 02:58:58;;;;;;;;;;;20.00;70.10;;;;;;5012777;28;93213;-47
2023/06/11 03:01:24;;;;;;;;;;;20.00;70.20;;;;;;5007934;28;93504;-48
2023/06/11 03:03:49;;;;;;;;;;;19.90;70.20;;;;;;5009612;28;92966;-48
2023/06/11 03:06:15;;;;;;;;;;;20.00;70.20;;;;;;5010513;28;92125;-48
2023/06/11 03:08:40;;;;;;;;;;;19.90;70.30;;;;;;5011228;28;92590;-47
2023/06/11 03:11:06;;;;;;;;;;;19.90;70.20;;;;;;5012241;28;92531;-47
2023/06/11 03:13:31;;;;;;;;;;;19.90;70.10;;;;;;5003815;28;92576;-47
2023/06/11 03:15:57;;;;;;;;;;;19.90;70.20;;;;;;5008135;28;92487;-47
2023/06/11 03:18:22;;;;;;;;;;;19.90;70.30;;;;;;5000677;28;92249;-47
2023/06/11 03:20:48;;;;;;;;;;;19.90;70.20;;;;;;5005098;28;92513;-47
2023/06/11 03:23:16;;;;;;;;;;;19.90;70.30;;;;;;4999897;28;94282;-47
2023/06/11 03:25:42;;;;;;;;;;;19.80;70.30;;;;;;5002363;28;92265;-47
2023/06/11 03:28:08;;;;;;;;;;;19.90;70.30;;;;;;5000665;28;92268;-47
2023/06/11 03:30:33;;;;;;;;;;;19.80;70.30;;;;;;5009715;28;93242;-47
2023/06/11 03:32:59;;;;;;;;;;;19.80;70.20;;;;;;5007361;28;92409;-49
2023/06/11 03:35:24;;;;;;;;;;;19.80;70.20;;;;;;5006873;28;93251;-47
2023/06/11 03:37:50;;;;;;;;;;;19.80;70.30;;;;;;5012152;28;92203;-47
2023/06/11 03:40:15;;;;;;;;;;;19.80;70.30;;;;;;5005266;28;92706;-48
2023/06/11 03:42:41;;;;;;;;;;;19.80;70.40;;;;;;5006167;28;93023;-48
2023/06/11 03:45:07;;;;;;;;;;;19.80;70.30;;;;;;5003944;28;92485;-48
2023/06/11 03:47:32;;;;;;;;;;;19.80;70.30;;;;;;5005696;28;94554;-47
2023/06/11 03:49:58;;;;;;;;;;;19.80;70.30;;;;;;5000232;28;92617;-49
2023/06/11 03:52:23;;;;;;;;;;;19.80;70.30;;;;;;5006707;28;92706;-48
2023/06/11 03:54:49;;;;;;;;;;;19.70;70.30;;;;;;5007199;28;93291;-47
2023/06/11 03:57:17;;;;;;;;;;;19.70;70.30;;;;;;5003965;28;93012;-48
2023/06/11 03:59:43;;;;;;;;;;;19.70;70.30;;;;;;5007401;28;92939;-47
2023/06/11 04:02:08;;;;;;;;;;;19.70;70.20;;;;;;5001966;28;92739;-48
2023/06/11 04:04:34;;;;;;;;;;;19.70;70.30;;;;;;5009186;28;91690;-47
2023/06/11 04:06:59;;;;;;;;;;;19.70;70.30;;;;;;5007213;28;92175;-47
2023/06/11 04:09:25;;;;;;;;;;;19.70;70.30;;;;;;5004183;28;94830;-47
2023/06/11 04:11:51;;;;;;;;;;;19.70;70.30;;;;;;5011010;28;93156;-48
2023/06/11 04:14:16;;;;;;;;;;;19.70;70.30;;;;;;5005334;28;93502;-48
2023/06/11 04:16:42;;;;;;;;;;;19.70;70.40;;;;;;5013068;28;92246;-47
2023/06/11 04:19:07;;;;;;;;;;;19.60;70.30;;;;;;5005764;28;92558;-47
2023/06/11 04:21:33;;;;;;;;;;;19.70;70.30;;;;;;5008444;28;93306;-47
2023/06/11 04:23:58;;;;;;;;;;;19.60;70.30;;;;;;5007087;28;92147;-48
2023/06/11 04:26:25;;;;;;;;;;;19.60;70.30;;;;;;5007003;28;92408;-48
2023/06/11 04:28:52;;;;;;;;;;;19.60;70.20;;;;;;5014624;28;92395;-48
2023/06/11 04:31:18;;;;;;;;;;;19.60;70.30;;;;;;5011188;28;92124;-50
2023/06/11 04:33:46;;;;;;;;;;;19.60;70.30;;;;;;5010809;28;92667;-47
2023/06/11 04:36:11;;;;;;;;;;;19.60;70.30;;;;;;5011086;28;94082;-48
2023/06/11 04:38:38;;;;;;;;;;;19.60;70.30;;;;;;5015195;28;93481;-47
2023/06/11 04:41:06;;;;;;;;;;;19.60;70.40;;;;;;5010146;28;92967;-47
2023/06/11 04:43:34;;;;;;;;;;;19.50;70.30;;;;;;5012977;28;92231;-48
2023/06/11 04:46:03;;;;;;;;;;;19.50;70.30;;;;;;5006144;28;92863;-48
2023/06/11 04:48:31;;;;;;;;;;;19.50;70.30;;;;;;5010132;28;93092;-49
2023/06/11 04:50:59;;;;;;;;;;;19.50;70.30;;;;;;5009065;28;92362;-47
2023/06/11 04:53:27;;;;;;;;;;;19.60;70.40;;;;;;5008430;28;92557;-47
2023/06/11 04:55:54;;;;;;;;;;;19.60;70.30;;;;;;5016968;28;93092;-48
2023/06/11 04:58:21;;;;;;;;;;;19.50;70.40;;;;;;5005849;28;92665;-48
2023/06/11 05:00:47;;;;;;;;;;;19.50;70.40;;;;;;5010409;28;94216;-49
2023/06/11 05:03:16;;;;;;;;;;;19.50;70.40;;;;;;5004329;28;92153;-50
2023/06/11 05:05:51;;;;;;;;;;;19.50;70.40;;;;;;5009784;28;92172;-49
2023/06/11 05:08:24;;;;;;;;;;;19.60;70.40;;;;;;5006949;28;93127;-49
2023/06/11 05:10:50;;;;;;;;;;;19.50;70.40;;;;;;5007533;28;94057;-49
2023/06/11 05:13:16;;;;;;;;;;;19.50;70.40;;;;;;5011857;28;93211;-48
2023/06/11 05:15:41;;;;;;;;;;;19.50;70.40;;;;;;5009773;28;93901;-49
2023/06/11 05:18:07;;;;;;;;;;;19.40;70.40;;;;;;5017033;28;91583;-47
2023/06/11 05:20:32;;;;;;;;;;;19.50;70.50;;;;;;5007216;28;93116;-48
2023/06/11 05:22:59;;;;;;;;;;;19.50;70.40;;;;;;4998638;28;92226;-47
2023/06/11 05:25:28;;;;;;;;;;;19.50;71.00;;;;;;5008386;28;93346;-47
2023/06/11 05:27:54;;;;;;;;;;;19.50;70.50;;;;;;5006643;28;93114;-48
2023/06/11 05:30:24;;;;;;;;;;;19.50;70.60;;;;;;5014876;28;92321;-47
2023/06/11 05:32:50;;;;;;;;;;;19.50;70.60;;;;;;5007897;28;93830;-47
2023/06/11 05:35:15;;;;;;;;;;;19.40;70.50;;;;;;5009154;28;93243;-48
2023/06/11 05:37:41;;;;;;;;;;;19.40;70.50;;;;;;5006148;28;92700;-48
2023/06/11 05:40:07;;;;;;;;;;;19.40;70.50;;;;;;5011181;28;92451;-47
2023/06/11 05:42:32;;;;;;;;;;;19.40;70.50;;;;;;5008419;28;91410;-48
2023/06/11 05:44:58;;;;;;;;;;;19.40;70.50;;;;;;5013435;28;92153;-47
2023/06/11 05:47:23;;;;;;;;;;;19.40;70.60;;;;;;5012945;28;93071;-47
2023/06/11 05:49:49;;;;;;;;;;;19.40;70.60;;;;;;5008313;28;93764;-49
2023/06/11 05:52:14;;;;;;;;;;;19.40;70.60;;;;;;5007336;28;93415;-47
2023/06/11 05:54:40;;;;;;;;;;;19.40;70.60;;;;;;5008823;28;93051;-47
2023/06/11 05:57:08;;;;;;;;;;;19.40;70.70;;;;;;5010361;28;92825;-47
2023/06/11 05:59:33;;;;;;;;;;;19.40;70.70;;;;;;5007904;28;92396;-48
2023/06/11 06:01:59;;;;;;;;;;;19.40;70.70;;;;;;5014866;28;93081;-47
2023/06/11 06:04:24;;;;;;;;;;;19.40;70.70;;;;;;5008781;28;93098;-47
2023/06/11 06:06:50;;;;;;;;;;;19.40;70.70;;;;;;5009589;28;92331;-47
2023/06/11 06:09:16;;;;;;;;;;;19.30;70.70;;;;;;5008974;28;92181;-47
2023/06/11 06:11:41;;;;;;;;;;;19.40;70.70;;;;;;5010796;28;92374;-47
2023/06/11 06:14:07;;;;;;;;;;;19.40;70.70;;;;;;5008993;28;94176;-49
2023/06/11 06:16:33;;;;;;;;;;;19.40;70.70;;;;;;5002163;28;92569;-47
2023/06/11 06:18:58;;;;;;;;;;;19.40;70.80;;;;;;5009903;28;92406;-48
2023/06/11 06:21:24;;;;;;;;;;;19.40;70.70;;;;;;5007227;28;93219;-47
2023/06/11 06:23:50;;;;;;;;;;;19.40;70.80;;;;;;5014651;28;92256;-48
2023/06/11 06:26:15;;;;;;;;;;;19.40;70.70;;;;;;5008953;28;93062;-47
2023/06/11 06:28:41;;;;;;;;;;;19.30;70.70;;;;;;5007260;28;92219;-47
2023/06/11 06:31:07;;;;;;;;;;;19.40;70.80;;;;;;5011001;28;92553;-47
2023/06/11 06:33:35;;;;;;;;;;;19.40;70.70;;;;;;5006278;28;92437;-48
2023/06/11 06:36:02;;;;;;;;;;;19.30;70.80;;;;;;5010569;28;93968;-48
2023/06/11 06:38:28;;;;;;;;;;;19.40;70.70;;;;;;5007843;28;93924;-47
2023/06/11 06:40:53;;;;;;;;;;;19.30;70.70;;;;;;5013017;28;92343;-49
2023/06/11 06:43:19;;;;;;;;;;;19.40;70.80;;;;;;5010092;28;92683;-48
2023/06/11 06:45:44;;;;;;;;;;;19.30;70.80;;;;;;5010032;28;93051;-47
2023/06/11 06:48:10;;;;;;;;;;;19.30;70.80;;;;;;5009497;28;93280;-48
2023/06/11 06:50:35;;;;;;;;;;;19.30;70.80;;;;;;5003433;28;92548;-48
2023/06/11 06:53:01;;;;;;;;;;;19.30;70.70;;;;;;5009315;28;93449;-47
2023/06/11 06:55:26;;;;;;;;;;;19.30;70.80;;;;;;5009670;28;91686;-47
2023/06/11 06:57:52;;;;;;;;;;;19.30;70.80;;;;;;5011699;28;92726;-47
2023/06/11 07:00:18;;;;;;;;;;;19.30;70.80;;;;;;5005480;28;93135;-48
2023/06/11 07:02:43;;;;;;;;;;;19.40;70.90;;;;;;5009798;28;93072;-48
2023/06/11 07:05:10;;;;;;;;;;;19.40;70.90;;;;;;5007810;28;92603;-47
2023/06/11 07:07:35;;;;;;;;;;;19.30;70.90;;;;;;5005354;28;92230;-47
2023/06/11 07:10:01;;;;;;;;;;;19.40;70.90;;;;;;5010587;28;92755;-48
2023/06/11 07:12:26;;;;;;;;;;;19.30;70.90;;;;;;5004290;28;93186;-47
2023/06/11 07:14:52;;;;;;;;;;;19.40;70.90;;;;;;5009092;28;92259;-47
2023/06/11 07:17:18;;;;;;;;;;;19.30;70.70;;;;;;5007495;28;93858;-47
2023/06/11 07:19:43;;;;;;;;;;;19.30;70.70;;;;;;5011408;28;92375;-48
2023/06/11 07:22:09;;;;;;;;;;;19.40;70.80;;;;;;5006667;28;92296;-48
2023/06/11 07:24:35;;;;;;;;;;;19.30;70.80;;;;;;5004013;28;92463;-48
2023/06/11 07:27:01;;;;;;;;;;;19.40;70.90;;;;;;5005350;28;94150;-48
2023/06/11 07:29:27;;;;;;;;;;;19.40;70.90;;;;;;5006861;28;93286;-47
2023/06/11 07:31:52;;;;;;;;;;;19.30;70.90;;;;;;4995345;28;93901;-48
2023/06/11 07:34:19;;;;;;;;;;;19.30;70.90;;;;;;5003928;28;93806;-47
2023/06/11 07:36:45;;;;;;;;;;;19.30;70.90;;;;;;5014169;28;92447;-49
2023/06/11 07:39:11;;;;;;;;;;;19.40;70.90;;;;;;5007710;28;93157;-48
2023/06/11 07:41:37;;;;;;;;;;;19.30;70.90;;;;;;5007705;28;92190;-47
2023/06/11 07:44:02;;;;;;;;;;;19.30;70.90;;;;;;5009436;28;93773;-47
2023/06/11 07:46:28;;;;;;;;;;;19.40;71.00;;;;;;5004557;28;92781;-47
2023/06/11 07:48:53;;;;;;;;;;;19.30;71.00;;;;;;5007714;28;92145;-47
2023/06/11 07:51:20;;;;;;;;;;;19.30;71.00;;;;;;5006425;28;94095;-48
2023/06/11 07:53:46;;;;;;;;;;;19.30;70.90;;;;;;5007292;28;92199;-48
2023/06/11 07:56:11;;;;;;;;;;;19.40;71.00;;;;;;5002214;28;92590;-47
2023/06/11 07:58:37;;;;;;;;;;;19.40;71.10;;;;;;5003477;28;93380;-48
2023/06/11 08:01:02;;;;;;;;;;;19.30;71.00;;;;;;5001383;28;92266;-48
2023/06/11 08:03:28;;;;;;;;;;;19.30;70.90;;;;;;5008046;28;95297;-48
2023/06/11 08:05:53;;;;;;;;;;;19.40;71.00;;;;;;5017884;28;93035;-48
2023/06/11 08:08:19;;;;;;;;;;;19.30;71.00;;;;;;5010562;28;91537;-48
2023/06/11 08:10:45;;;;;;;;;;;19.40;71.00;;;;;;5013071;28;92121;-48
2023/06/11 08:13:11;;;;;;;;;;;19.30;70.90;;;;;;5008903;28;92130;-47
2023/06/11 08:15:37;;;;;;;;;;;19.40;70.80;;;;;;5009621;28;94078;-47
2023/06/11 08:18:03;;;;;;;;;;;19.40;70.80;;;;;;5006367;28;94001;-47
2023/06/11 08:20:28;;;;;;;;;;;19.40;70.70;;;;;;5006470;28;92870;-47
2023/06/11 08:22:54;;;;;;;;;;;19.40;70.80;;;;;;5006465;28;92430;-47
2023/06/11 08:25:19;;;;;;;;;;;19.40;70.70;;;;;;5006433;28;92983;-47
2023/06/11 08:27:46;;;;;;;;;;;19.40;70.80;;;;;;5012372;28;92401;-48
2023/06/11 08:30:12;;;;;;;;;;;19.40;70.90;;;;;;5007369;28;92696;-48
2023/06/11 08:32:37;;;;;;;;;;;19.40;70.90;;;;;;5011672;28;91641;-47
2023/06/11 08:35:03;;;;;;;;;;;19.50;70.90;;;;;;5005521;28;92112;-48
2023/06/11 08:37:28;;;;;;;;;;;19.50;71.00;;;;;;5008613;28;93138;-47
2023/06/11 08:39:54;;;;;;;;;;;19.40;71.00;;;;;;5013509;28;93117;-47
2023/06/11 08:42:19;;;;;;;;;;;19.50;71.10;;;;;;5011600;28;93246;-47
2023/06/11 08:44:45;;;;;;;;;;;19.40;71.10;;;;;;5012478;28;93124;-48
2023/06/11 08:47:10;;;;;;;;;;;19.40;71.10;;;;;;5006829;28;92178;-47
2023/06/11 08:49:38;;;;;;;;;;;19.40;71.10;;;;;;5007570;28;92778;-47
2023/06/11 08:52:05;;;;;;;;;;;19.40;71.10;;;;;;5008937;28;93329;-47
2023/06/11 08:54:30;;;;;;;;;;;19.40;71.20;;;;;;5018208;28;92224;-47
2023/06/11 08:56:56;;;;;;;;;;;19.40;71.20;;;;;;5012634;28;92622;-46
2023/06/11 08:59:21;;;;;;;;;;;19.50;71.30;;;;;;5010071;28;92308;-48
2023/06/11 09:01:50;;;;;;;;;;;19.50;71.20;;;;;;5011178;28;92692;-47
2023/06/11 09:04:16;;;;;;;;;;;19.50;71.30;;;;;;5009266;28;93973;-48
2023/06/11 09:06:51;;;;;;;;;;;19.50;71.40;;;;;;5009584;28;92185;-48
2023/06/11 09:09:17;;;;;;;;;;;19.50;71.40;;;;;;5006265;28;92657;-47
2023/06/11 09:11:44;;;;;;;;;;;19.50;71.40;;;;;;5014858;28;93224;-47
2023/06/11 09:14:09;;;;;;;;;;;19.50;71.50;;;;;;5006885;28;92243;-47
2023/06/11 09:16:39;;;;;;;;;;;19.50;71.40;;;;;;5007179;28;93003;-47
2023/06/11 09:19:05;;;;;;;;;;;19.50;71.50;;;;;;5008069;28;92179;-48
2023/06/11 09:21:31;;;;;;;;;;;19.50;71.40;;;;;;5009760;28;92412;-48
2023/06/11 09:24:05;;;;;;;;;;;19.50;71.40;;;;;;5006256;28;93271;-49
2023/06/11 09:26:30;;;;;;;;;;;19.50;71.40;;;;;;5010509;28;92032;-49
2023/06/11 09:28:59;;;;;;;;;;;19.50;71.50;;;;;;5012307;28;93043;-48
2023/06/11 09:31:25;;;;;;;;;;;19.50;71.60;;;;;;5006772;28;92340;-48
2023/06/11 09:33:51;;;;;;;;;;;19.50;71.50;;;;;;5014926;28;92165;-47
2023/06/11 09:36:18;;;;;;;;;;;19.50;71.60;;;;;;5006958;28;92633;-47
2023/06/11 09:38:45;;;;;;;;;;;19.50;71.50;;;;;;5012921;28;92456;-47
2023/06/11 09:41:10;;;;;;;;;;;19.50;71.60;;;;;;5009800;28;92634;-49
2023/06/11 09:43:36;;;;;;;;;;;19.50;71.50;;;;;;5010363;28;93223;-47
2023/06/11 09:46:02;;;;;;;;;;;19.50;71.50;;;;;;5011828;28;91410;-49
2023/06/11 09:48:28;;;;;;;;;;;19.50;71.60;;;;;;5008091;28;93265;-47
2023/06/11 09:50:54;;;;;;;;;;;19.50;71.60;;;;;;5015048;28;93252;-47
2023/06/11 09:53:20;;;;;;;;;;;19.50;71.60;;;;;;5008247;28;93266;-47
2023/06/11 09:55:50;;;;;;;;;;;19.40;71.60;;;;;;5013366;28;92973;-47
2023/06/11 09:58:22;;;;;;;;;;;19.50;71.70;;;;;;5006564;28;93226;-50
2023/06/11 10:00:48;;;;;;;;;;;19.50;71.50;;;;;;5004005;28;92407;-48
2023/06/11 10:03:14;;;;;;;;;;;19.50;71.50;;;;;;5002260;28;92950;-48
2023/06/11 10:05:39;;;;;;;;;;;19.50;71.60;;;;;;5008320;28;92323;-50
2023/06/11 10:08:05;;;;;;;;;;;19.40;72.20;;;;;;5007331;28;93024;-47
2023/06/11 10:10:35;;;;;;;;;;;19.40;71.80;;;;;;5007545;28;92280;-48
2023/06/11 10:13:00;;;;;;;;;;;19.50;71.70;;;;;;5013351;28;92554;-46
2023/06/11 10:15:26;;;;;;;;;;;19.50;71.20;;;;;;5002496;28;92221;-46
2023/06/11 10:17:53;;;;;;;;;;;19.60;71.00;;;;;;5007590;28;94189;-44
2023/06/11 10:20:31;;;;;;;;;;;19.50;70.20;;;;;;5009080;28;92143;-50
2023/06/11 10:23:03;;;;;;;;;;;19.60;69.40;;;;;;5005776;28;93390;-45
2023/06/11 10:25:36;;;;;;;;;;;19.60;70.10;;;;;;5003806;28;92198;-53
2023/06/11 10:28:01;;;;;;;;;;;19.60;70.70;;;;;;4997669;28;92739;-51
2023/06/11 10:30:27;;;;;;;;;;;19.60;70.70;;;;;;4999670;28;92288;-47
2023/06/11 10:32:57;;;;;;;;;;;19.70;71.70;;;;;;5000097;28;92008;-49
2023/06/11 10:35:32;;;;;;;;;;;19.70;71.90;;;;;;5000670;28;92811;-49
2023/06/11 10:38:02;;;;;;;;;;;19.90;72.90;;;;;;4999666;28;93341;-46
2023/06/11 10:40:31;;;;;;;;;;;19.90;71.00;;;;;;5007042;28;92070;-49
2023/06/11 10:42:57;;;;;;;;;;;20.10;73.50;;;;;;5021874;28;92962;-52
2023/06/11 10:45:31;;;;;;;;;;;20.10;68.30;;;;;;5020102;28;92336;-47
2023/06/11 10:47:59;;;;;;;;;;;20.10;68.10;;;;;;5020119;28;91894;-48
2023/06/11 10:50:30;;;;;;;;;;;20.10;68.60;;;;;;5003107;28;93018;-44
2023/06/11 10:52:58;;;;;;;;;;;20.00;69.10;;;;;;5005446;28;92156;-46
2023/06/11 10:55:26;;;;;;;;;;;20.00;69.70;;;;;;5009560;28;92058;-46
2023/06/11 10:57:55;;;;;;;;;;;20.00;68.40;;;;;;5011115;28;93160;-46
2023/06/11 11:00:21;;;;;;;;;;;20.00;67.90;;;;;;5005857;28;91352;-46
2023/06/11 11:02:47;;;;;;;;;;;20.10;68.20;;;;;;5004892;28;92070;-48
2023/06/11 11:05:12;;;;;;;;;;;20.20;69.40;;;;;;5008142;28;92323;-48
2023/06/11 11:07:38;;;;;;;;;;;20.40;70.40;;;;;;5008858;28;93107;-47
2023/06/11 11:10:05;;;;;;;;;;;20.50;70.20;;;;;;5013567;28;93039;-47
2023/06/11 11:12:46;;;;;;;;;;;20.50;70.90;;;;;;5003976;28;92078;-48
2023/06/11 11:15:12;;;;;;;;;;;20.60;71.50;;;;;;5004911;28;92758;-49
2023/06/11 11:17:38;;;;;;;;;;;20.60;70.50;;;;;;5005968;28;92938;-48
2023/06/11 11:20:07;;;;;;;;;;;20.60;68.70;;;;;;5010399;28;92684;-48
2023/06/11 11:22:33;;;;;;;;;;;20.70;71.30;;;;;;5011337;28;94261;-48
2023/06/11 11:25:03;;;;;;;;;;;20.80;71.30;;;;;;5008111;28;92483;-52
2023/06/11 11:27:29;;;;;;;;;;;20.80;72.10;;;;;;5006061;28;92227;-49
2023/06/11 11:29:57;;;;;;;;;;;20.90;72.40;;;;;;4992249;28;93217;-46
2023/06/11 11:32:26;;;;;;;;;;;21.00;71.70;;;;;;5009509;28;93170;-47
2023/06/11 11:34:53;;;;;;;;;;;21.00;70.50;;;;;;5011942;28;93192;-47
2023/06/11 11:37:18;;;;;;;;;;;20.90;68.50;;;;;;5005813;28;93918;-44
2023/06/11 11:39:44;;;;;;;;;;;20.80;67.40;;;;;;5006947;28;92199;-50
2023/06/11 11:42:09;;;;;;;;;;;20.70;68.50;;;;;;5006315;28;92462;-51
2023/06/11 11:44:42;;;;;;;;;;;20.70;67.60;;;;;;5005453;28;93045;-49
2023/06/11 11:47:11;;;;;;;;;;;20.70;66.90;;;;;;5010995;28;92612;-49
2023/06/11 11:49:36;;;;;;;;;;;20.70;66.50;;;;;;5005190;28;91611;-45
2023/06/11 11:52:03;;;;;;;;;;;20.70;67.20;;;;;;5006713;28;92534;-50
2023/06/11 11:54:29;;;;;;;;;;;20.60;67.00;;;;;;5008609;28;93066;-50
2023/06/11 11:57:01;;;;;;;;;;;20.60;67.50;;;;;;5006229;28;93743;-48
2023/06/11 11:59:27;;;;;;;;;;;20.60;67.00;;;;;;5007196;28;92177;-53
2023/06/11 12:02:02;;;;;;;;;;;20.60;66.80;;;;;;5007078;28;92492;-54
2023/06/11 12:04:37;;;;;;;;;;;20.70;66.10;;;;;;5008038;28;93375;-46
2023/06/11 12:07:04;;;;;;;;;;;20.70;65.90;;;;;;5005044;28;92690;-48
2023/06/11 12:09:30;;;;;;;;;;;20.70;66.30;;;;;;5010747;28;93033;-46
2023/06/11 12:11:55;;;;;;;;;;;20.60;66.40;;;;;;5008172;28;92888;-52
2023/06/11 12:14:21;;;;;;;;;;;20.60;65.10;;;;;;5007372;28;92100;-46
2023/06/11 12:16:47;;;;;;;;;;;20.70;65.50;;;;;;5005969;28;93288;-45
2023/06/11 12:19:15;;;;;;;;;;;20.70;66.30;;;;;;5006933;28;92205;-43
2023/06/11 12:21:41;;;;;;;;;;;20.70;66.50;;;;;;5006309;28;93590;-43
2023/06/11 12:24:09;;;;;;;;;;;20.70;67.00;;;;;;5004537;28;93024;-46
2023/06/11 12:26:35;;;;;;;;;;;20.80;67.00;;;;;;5008342;28;92205;-48
2023/06/11 12:29:00;;;;;;;;;;;20.80;66.60;;;;;;5005296;28;92883;-47
2023/06/11 12:31:26;;;;;;;;;;;20.70;66.60;;;;;;5006884;28;94360;-46
2023/06/11 12:33:52;;;;;;;;;;;20.70;66.40;;;;;;5009097;28;92424;-50
2023/06/11 12:36:17;;;;;;;;;;;20.70;66.70;;;;;;5004579;28;93191;-46
2023/06/11 12:38:45;;;;;;;;;;;20.80;66.80;;;;;;5009204;28;91786;-47
2023/06/11 12:41:10;;;;;;;;;;;20.70;66.80;;;;;;5007759;28;92145;-49
2023/06/11 12:43:36;;;;;;;;;;;20.80;67.30;;;;;;5005236;28;93382;-46
2023/06/11 12:46:01;;;;;;;;;;;20.80;67.90;;;;;;5004758;28;93115;-50
2023/06/11 12:48:27;;;;;;;;;;;20.80;68.50;;;;;;5006164;28;94713;-47
2023/06/11 12:50:53;;;;;;;;;;;20.70;69.20;;;;;;5007458;28;93012;-47
2023/06/11 12:53:18;;;;;;;;;;;20.80;70.90;;;;;;5011768;28;92338;-50
2023/06/11 12:55:44;;;;;;;;;;;20.70;70.20;;;;;;5009016;28;93157;-47
2023/06/11 12:58:09;;;;;;;;;;;20.70;71.50;;;;;;5008075;28;92203;-52
2023/06/11 13:00:35;;;;;;;;;;;20.80;71.80;;;;;;5009950;28;92543;-47
2023/06/11 13:03:00;;;;;;;;;;;20.80;71.50;;;;;;5008769;28;92235;-50
2023/06/11 13:05:26;;;;;;;;;;;20.80;71.20;;;;;;5010916;28;92145;-48
2023/06/11 13:07:53;;;;;;;;;;;20.90;71.10;;;;;;5008404;28;92359;-51
2023/06/11 13:10:22;;;;;;;;;;;20.90;70.80;;;;;;5010188;28;94177;-49
2023/06/11 13:12:48;;;;;;;;;;;20.90;70.80;;;;;;5011755;28;92281;-55
2023/06/11 13:15:13;;;;;;;;;;;20.90;70.70;;;;;;5011852;28;93111;-56
2023/06/11 13:17:39;;;;;;;;;;;20.90;70.90;;;;;;5009621;28;92474;-44
2023/06/11 13:20:05;;;;;;;;;;;21.00;71.60;;;;;;5012121;28;93181;-52
2023/06/11 13:22:30;;;;;;;;;;;21.00;71.80;;;;;;5009460;28;92129;-56
2023/06/11 13:24:56;;;;;;;;;;;21.00;73.10;;;;;;5009920;28;92204;-60
2023/06/11 13:27:21;;;;;;;;;;;21.00;72.00;;;;;;5011172;28;92628;-49
2023/06/11 13:29:47;;;;;;;;;;;21.00;71.90;;;;;;5010131;28;93168;-57
2023/06/11 13:32:13;;;;;;;;;;;21.00;71.80;;;;;;5010336;28;92140;-54
2023/06/11 13:34:38;;;;;;;;;;;21.00;71.60;;;;;;5012767;28;93137;-49
2023/06/11 13:37:04;;;;;;;;;;;21.10;71.10;;;;;;5009867;28;92144;-50
2023/06/11 13:39:29;;;;;;;;;;;21.10;71.20;;;;;;5010361;28;92671;-47
2023/06/11 13:41:55;;;;;;;;;;;21.10;71.50;;;;;;5008975;28;93432;-47
2023/06/11 13:44:22;;;;;;;;;;;21.10;72.70;;;;;;5010653;28;92825;-51
2023/06/11 13:46:47;;;;;;;;;;;21.20;73.10;;;;;;5011836;28;93828;-47
2023/06/11 13:49:13;;;;;;;;;;;21.20;72.30;;;;;;5007681;28;92912;-53
2023/06/11 13:51:39;;;;;;;;;;;21.20;72.30;;;;;;5008215;28;91516;-49
2023/06/11 13:54:04;;;;;;;;;;;21.20;71.30;;;;;;5007579;28;93204;-44
2023/06/11 13:56:30;;;;;;;;;;;21.20;70.80;;;;;;5014315;28;93255;-55
2023/06/11 13:58:55;;;;;;;;;;;21.30;71.10;;;;;;5011170;28;93402;-46
2023/06/11 14:01:21;;;;;;;;;;;21.30;71.70;;;;;;5006949;28;93134;-43
2023/06/11 14:03:47;;;;;;;;;;;21.30;71.50;;;;;;5010788;28;92155;-47
2023/06/11 14:06:12;;;;;;;;;;;21.20;72.00;;;;;;5009692;28;92555;-48
2023/06/11 14:08:38;;;;;;;;;;;21.20;71.80;;;;;;5010735;28;93205;-50
2023/06/11 14:11:04;;;;;;;;;;;21.20;71.70;;;;;;5010315;28;92193;-50